createdAt,value
2022-12-04T00:01:34.803Z,17.10
2022-12-04T00:06:39.063Z,12.90
2022-12-04T00:11:48.739Z,14.95
2022-12-04T00:16:55.915Z,12.27
2022-12-04T00:22:03.146Z,10.65
2022-12-04T00:27:15.631Z,10.95
2022-12-04T00:32:19.274Z,9.45
2022-12-04T00:37:27.862Z,10.98
2022-12-04T00:42:46.227Z,10.35
2022-12-04T00:47:51.716Z,12.75
2022-12-04T00:52:57.336Z,9.07
2022-12-04T00:58:04.925Z,9.38
2022-12-04T01:03:12.301Z,9.40
2022-12-04T01:08:22.658Z,11.60
2022-12-04T01:13:49.874Z,9.88
2022-12-04T01:18:53.522Z,11.68
2022-12-04T01:24:07.234Z,13.65
2022-12-04T01:29:11.882Z,11.38
2022-12-04T01:34:15.706Z,11.45
2022-12-04T01:39:21.015Z,11.35
2022-12-04T01:44:30.248Z,11.05
2022-12-04T01:49:56.229Z,11.15
2022-12-04T01:55:03.768Z,11.70
2022-12-04T02:05:25.321Z,8.55
2022-12-04T02:11:13.235Z,9.25
2022-12-04T02:17:09.282Z,8.95
2022-12-04T02:22:38.864Z,9.88
2022-12-04T02:28:19.679Z,8.95
2022-12-04T02:33:46.798Z,10.63
2022-12-04T02:39:15.874Z,10.20
2022-12-04T02:44:31.683Z,35.00
2022-12-04T02:49:54.453Z,14.85
2022-12-04T02:55:30.433Z,12.18
2022-12-04T03:00:41.398Z,11.15
2022-12-04T03:05:58.142Z,8.75
2022-12-04T03:11:06.010Z,10.88
2022-12-04T03:16:19.868Z,9.98
2022-12-04T03:21:36.900Z,11.10
2022-12-04T03:26:49.715Z,9.90
2022-12-04T03:32:21.712Z,10.35
2022-12-04T03:37:48.737Z,13.10
2022-12-04T03:43:32.349Z,10.82
2022-12-04T03:49:15.520Z,10.65
2022-12-04T03:54:43.799Z,11.02
2022-12-04T04:00:09.136Z,10.10
2022-12-04T04:05:20.032Z,12.90
2022-12-04T04:10:29.988Z,10.70
2022-12-04T04:16:05.511Z,9.85
2022-12-04T04:21:31.597Z,9.95
2022-12-04T04:26:42.696Z,10.98
2022-12-04T04:32:09.271Z,10.50
2022-12-04T04:37:54.506Z,10.55
2022-12-04T04:43:57.064Z,9.38
2022-12-04T04:49:05.075Z,9.00
2022-12-04T04:54:14.947Z,8.98
2022-12-04T04:59:22.911Z,10.40
2022-12-04T05:04:35.933Z,10.00
2022-12-04T05:13:24.573Z,8.23
2022-12-04T05:18:28.639Z,7.72
2022-12-04T05:23:34.842Z,10.73
2022-12-04T05:28:36.816Z,7.75
2022-12-04T05:33:42.256Z,8.85
2022-12-04T05:38:46.970Z,7.70
2022-12-04T05:43:53.801Z,9.23
2022-12-04T05:48:56.744Z,7.57
2022-12-04T06:21:59.880Z,7.82
2022-12-04T06:32:39.560Z,6.88
2022-12-04T06:37:50.342Z,9.30
2022-12-04T06:42:58.829Z,8.25
2022-12-04T06:48:04.355Z,8.38
2022-12-04T06:53:19.546Z,7.97
2022-12-04T06:58:26.500Z,8.15
2022-12-04T07:03:36.978Z,10.15
2022-12-04T07:08:56.385Z,8.57
2022-12-04T07:14:16.369Z,8.73
2022-12-04T07:19:29.191Z,8.02
2022-12-04T07:24:40.549Z,10.05
2022-12-04T07:29:58.651Z,7.78
2022-12-04T07:40:29.121Z,7.93
2022-12-04T07:45:45.581Z,5.13
2022-12-04T07:51:14.625Z,7.13
2022-12-04T07:56:38.100Z,8.05
2022-12-04T08:07:17.768Z,8.45
2022-12-04T08:12:44.695Z,7.70
2022-12-04T08:18:00.611Z,9.77
2022-12-04T08:23:13.846Z,6.13
2022-12-04T08:28:28.173Z,7.10
2022-12-04T08:33:36.577Z,7.32
2022-12-04T08:38:44.236Z,6.70
2022-12-04T08:43:58.923Z,7.25
2022-12-04T08:49:17.976Z,7.75
2022-12-04T08:54:25.295Z,5.20
2022-12-04T08:59:40.219Z,8.27
2022-12-04T09:04:48.184Z,7.18
2022-12-04T09:10:01.065Z,7.38
2022-12-04T09:15:11.954Z,8.02
2022-12-04T09:20:44.452Z,5.38
2022-12-04T09:31:33.737Z,5.47
2022-12-04T09:42:33.670Z,8.07
2022-12-04T09:47:57.706Z,9.32
2022-12-04T09:53:24.631Z,8.30
2022-12-04T09:59:07.534Z,21.83
2022-12-04T10:04:39.661Z,10.25
2022-12-04T10:10:22.309Z,7.20
2022-12-04T10:16:08.926Z,6.72
2022-12-04T10:21:37.228Z,5.15
2022-12-04T10:26:46.278Z,4.65
2022-12-04T10:31:58.301Z,4.78
2022-12-04T10:37:21.820Z,7.68
2022-12-04T10:42:47.869Z,4.97
2022-12-04T10:48:00.032Z,4.72
2022-12-04T10:53:22.620Z,5.55
2022-12-04T10:58:36.517Z,4.93
2022-12-04T11:03:46.685Z,8.70
2022-12-04T11:08:56.089Z,7.45
2022-12-04T11:14:20.279Z,7.45
2022-12-04T11:19:30.942Z,7.03
2022-12-04T11:24:41.142Z,7.32
2022-12-04T11:29:50.432Z,9.05
2022-12-04T11:35:23.661Z,7.57
2022-12-04T11:40:47.026Z,8.27
2022-12-04T11:46:02.002Z,5.73
2022-12-04T11:51:36.556Z,7.45
2022-12-04T11:56:49.561Z,7.72
2022-12-04T12:02:24.007Z,6.15
2022-12-04T12:08:01.945Z,5.97
2022-12-04T12:13:39.834Z,9.07
2022-12-04T12:19:29.304Z,8.05
2022-12-04T12:24:51.554Z,8.38
2022-12-04T12:30:29.755Z,6.47
2022-12-04T12:35:56.615Z,8.98
2022-12-04T12:41:26.031Z,7.57
2022-12-04T12:46:53.504Z,8.75
2022-12-04T12:52:27.323Z,7.53
2022-12-04T12:57:53.901Z,7.93
2022-12-04T13:03:36.552Z,6.88
2022-12-04T13:09:37.030Z,6.57
2022-12-04T13:20:52.769Z,6.47
2022-12-04T13:26:37.958Z,6.65
2022-12-04T13:38:00.549Z,5.97
2022-12-04T13:43:33.751Z,9.25
2022-12-04T13:48:49.254Z,6.28
2022-12-04T13:59:49.732Z,7.97
2022-12-04T14:05:19.107Z,8.13
2022-12-04T14:10:47.694Z,8.25
2022-12-04T14:16:26.404Z,8.27
2022-12-04T14:21:49.101Z,10.07
2022-12-04T14:27:31.058Z,10.40
2022-12-04T14:32:37.497Z,10.57
2022-12-04T14:38:07.987Z,7.90
2022-12-04T14:43:30.792Z,6.68
2022-12-04T14:48:56.516Z,7.50
2022-12-04T14:54:26.500Z,6.15
2022-12-04T14:59:55.556Z,16.50
2022-12-04T15:05:04.026Z,8.80
2022-12-04T15:10:45.070Z,6.67
2022-12-04T15:15:55.042Z,7.07
2022-12-04T15:21:15.985Z,7.13
2022-12-04T15:26:29.437Z,6.55
2022-12-04T15:31:51.633Z,6.82
2022-12-04T15:37:23.881Z,7.30
2022-12-04T15:42:37.958Z,5.18
2022-12-04T15:48:11.989Z,4.40
2022-12-04T15:53:29.731Z,5.72
2022-12-04T15:58:43.234Z,4.15
2022-12-04T16:04:01.587Z,5.07
2022-12-04T16:09:26.844Z,4.78
2022-12-04T16:20:11.386Z,4.72
2022-12-04T16:25:24.185Z,4.80
2022-12-04T16:30:40.349Z,5.90
2022-12-04T16:35:58.626Z,6.18
2022-12-04T16:41:18.872Z,6.15
2022-12-04T16:46:25.454Z,4.85
2022-12-04T16:51:50.962Z,5.80
2022-12-04T16:57:04.726Z,5.32
2022-12-04T17:02:30.011Z,4.68
2022-12-04T17:07:42.094Z,6.00
2022-12-04T17:12:57.964Z,4.53
2022-12-04T17:18:16.361Z,4.28
2022-12-04T17:23:30.086Z,5.80
2022-12-04T17:28:37.521Z,6.47
2022-12-04T17:33:40.087Z,5.28
2022-12-04T17:38:43.397Z,6.32
2022-12-04T17:43:49.060Z,5.10
2022-12-04T17:49:06.668Z,5.35
2022-12-04T17:54:20.125Z,6.13
2022-12-04T17:59:36.605Z,5.03
2022-12-04T18:04:51.313Z,4.60
2022-12-04T18:09:59.735Z,3.75
2022-12-04T18:15:21.405Z,4.00
2022-12-04T18:20:50.476Z,5.97
2022-12-04T18:26:18.519Z,3.90
2022-12-04T18:31:32.573Z,3.97
2022-12-04T18:36:39.887Z,5.40
2022-12-04T18:41:47.426Z,4.45
2022-12-04T18:52:18.565Z,5.88
2022-12-04T18:57:32.158Z,4.78
2022-12-04T19:08:47.753Z,6.07
2022-12-04T19:14:16.148Z,4.82
2022-12-04T19:19:35.959Z,10.70
2022-12-04T19:24:56.687Z,9.70
2022-12-04T19:30:08.435Z,7.30
2022-12-04T19:35:17.391Z,7.40
2022-12-04T19:40:23.560Z,5.85
2022-12-04T19:45:36.284Z,5.65
2022-12-04T19:50:50.209Z,6.93
2022-12-04T19:56:01.986Z,7.28
2022-12-04T20:01:17.646Z,6.78
2022-12-04T20:06:36.554Z,6.72
2022-12-04T20:11:49.337Z,10.13
2022-12-04T20:17:11.344Z,15.13
2022-12-04T20:22:37.088Z,15.25
2022-12-04T20:27:49.996Z,11.23
2022-12-04T20:33:32.906Z,14.20
2022-12-04T20:38:41.102Z,11.27
2022-12-04T20:44:12.159Z,15.60
2022-12-04T20:49:30.850Z,13.05
2022-12-04T20:54:47.663Z,11.75
2022-12-04T21:00:15.597Z,11.88
2022-12-04T21:05:30.375Z,12.90
2022-12-04T21:10:42.094Z,14.05
2022-12-04T21:16:03.725Z,13.80
2022-12-04T21:21:09.617Z,13.75
2022-12-04T21:26:35.575Z,11.70
2022-12-04T21:31:49.595Z,11.05
2022-12-04T21:37:18.623Z,11.38
2022-12-04T21:42:33.438Z,12.68
2022-12-04T21:47:38.658Z,13.38
2022-12-04T21:52:56.807Z,10.85
2022-12-04T21:58:16.656Z,12.23
2022-12-04T22:03:28.835Z,15.43
2022-12-04T22:08:55.018Z,12.50
2022-12-04T22:14:10.916Z,12.75
2022-12-04T22:19:19.068Z,10.52
2022-12-04T22:24:24.012Z,11.02
2022-12-04T22:29:49.749Z,11.90
2022-12-04T22:35:05.213Z,13.02
2022-12-04T22:40:28.855Z,9.45
2022-12-04T22:45:34.581Z,8.55
2022-12-04T22:50:44.028Z,9.02
2022-12-04T23:01:24.041Z,8.65
2022-12-04T23:06:39.643Z,8.20
2022-12-04T23:11:46.087Z,6.68
2022-12-04T23:16:51.697Z,8.05
2022-12-04T23:22:07.424Z,8.10
2022-12-04T23:27:17.774Z,7.65
2022-12-04T23:32:41.679Z,8.25
2022-12-04T23:37:51.077Z,10.02
2022-12-04T23:42:56.522Z,8.95
2022-12-04T23:48:03.065Z,9.00
2022-12-04T23:53:12.909Z,10.85
2022-12-04T23:58:31.672Z,8.73
